createdAt,value
2023-03-04T00:02:19.584Z,86.70
2023-03-04T00:04:46.413Z,83.10
2023-03-04T00:07:16.714Z,73.00
2023-03-04T00:09:47.056Z,72.60
2023-03-04T00:12:13.993Z,78.87
2023-03-04T00:14:41.048Z,74.70
2023-03-04T00:17:08.162Z,81.47
2023-03-04T00:19:35.600Z,72.97
2023-03-04T00:22:04.052Z,80.23
2023-03-04T00:24:31.258Z,77.87
2023-03-04T00:26:57.996Z,84.50
2023-03-04T00:29:25.038Z,76.17
2023-03-04T00:31:51.856Z,76.13
2023-03-04T00:34:18.797Z,75.30
2023-03-04T00:36:45.682Z,74.37
2023-03-04T00:39:13.142Z,85.97
2023-03-04T00:41:39.882Z,74.77
2023-03-04T00:44:06.747Z,80.27
2023-03-04T00:46:33.619Z,74.67
2023-03-04T00:49:00.319Z,76.23
2023-03-04T00:51:27.247Z,77.10
2023-03-04T00:53:54.177Z,80.27
2023-03-04T00:56:21.008Z,82.60
2023-03-04T00:58:50.611Z,80.80
2023-03-04T01:01:17.441Z,81.07
2023-03-04T01:03:44.277Z,81.23
2023-03-04T01:06:11.460Z,80.10
2023-03-04T01:08:38.499Z,85.73
2023-03-04T01:11:05.531Z,76.87
2023-03-04T01:13:32.611Z,73.67
2023-03-04T01:15:59.418Z,77.63
2023-03-04T01:18:26.212Z,72.93
2023-03-04T01:20:52.989Z,75.63
2023-03-04T01:23:19.737Z,78.50
2023-03-04T01:25:46.593Z,76.33
2023-03-04T01:28:13.441Z,79.93
2023-03-04T01:30:40.241Z,81.40
2023-03-04T01:33:07.041Z,77.73
2023-03-04T01:35:33.889Z,77.57
2023-03-04T01:38:00.696Z,77.67
2023-03-04T01:40:27.543Z,81.07
2023-03-04T01:42:54.238Z,81.07
2023-03-04T01:45:21.316Z,80.80
2023-03-04T01:47:49.312Z,79.50
2023-03-04T01:50:28.286Z,85.77
2023-03-04T01:52:55.061Z,85.07
2023-03-04T01:55:24.121Z,80.17
2023-03-04T01:57:52.492Z,77.33
2023-03-04T02:00:21.264Z,75.63
2023-03-04T02:02:52.676Z,83.53
2023-03-04T02:05:20.779Z,74.03
2023-03-04T02:07:47.914Z,82.80
2023-03-04T02:10:14.788Z,78.50
2023-03-04T02:12:41.940Z,80.00
2023-03-04T02:15:09.279Z,78.90
2023-03-04T02:17:35.993Z,88.00
2023-03-04T02:20:09.516Z,83.53
2023-03-04T02:22:43.259Z,86.43
2023-03-04T02:25:19.812Z,81.37
2023-03-04T02:27:46.558Z,78.97
2023-03-04T02:30:13.838Z,79.57
2023-03-04T02:32:40.543Z,74.67
2023-03-04T02:35:14.520Z,77.80
2023-03-04T02:37:41.274Z,73.13
2023-03-04T02:40:15.260Z,76.60
2023-03-04T02:42:44.472Z,83.03
2023-03-04T02:45:31.586Z,80.70
2023-03-04T02:47:58.376Z,75.13
2023-03-04T02:50:26.115Z,79.53
2023-03-04T02:52:52.854Z,76.20
2023-03-04T02:55:19.561Z,79.23
2023-03-04T02:57:46.274Z,76.83
2023-03-04T03:00:13.735Z,75.57
2023-03-04T03:02:40.531Z,78.43
2023-03-04T03:05:07.938Z,75.47
2023-03-04T03:07:38.184Z,80.40
2023-03-04T03:10:05.455Z,79.77
2023-03-04T03:12:32.122Z,91.40
2023-03-04T03:14:58.803Z,89.73
2023-03-04T03:17:25.502Z,84.63
2023-03-04T03:19:52.222Z,90.73
2023-03-04T03:22:18.946Z,85.47
2023-03-04T03:24:45.734Z,81.33
2023-03-04T03:27:12.541Z,80.70
2023-03-04T03:29:39.306Z,77.83
2023-03-04T03:32:06.372Z,79.67
2023-03-04T03:34:33.225Z,77.93
2023-03-04T03:36:59.976Z,94.17
2023-03-04T03:39:26.671Z,81.50
2023-03-04T03:41:53.382Z,89.20
2023-03-04T03:44:20.142Z,86.00
2023-03-04T03:46:47.228Z,83.83
2023-03-04T03:49:13.953Z,87.93
2023-03-04T03:51:40.675Z,87.23
2023-03-04T03:54:07.428Z,81.77
2023-03-04T03:56:34.344Z,81.73
2023-03-04T03:59:01.256Z,84.60
2023-03-04T04:01:28.188Z,92.50
2023-03-04T04:03:54.881Z,86.37
2023-03-04T04:06:21.673Z,97.17
2023-03-04T04:08:48.359Z,87.97
2023-03-04T04:11:15.124Z,85.07
2023-03-04T04:13:41.807Z,88.07
2023-03-04T04:16:10.220Z,88.83
2023-03-04T04:18:37.652Z,87.33
2023-03-04T04:21:05.250Z,92.47
2023-03-04T04:23:32.205Z,85.07
2023-03-04T04:25:58.984Z,89.77
2023-03-04T04:28:25.757Z,92.17
2023-03-04T04:30:52.502Z,87.87
2023-03-04T04:33:19.413Z,98.07
2023-03-04T04:35:46.213Z,78.50
2023-03-04T04:38:13.002Z,86.77
2023-03-04T04:40:39.728Z,93.53
2023-03-04T04:43:06.972Z,81.20
2023-03-04T04:45:34.470Z,95.73
2023-03-04T04:48:01.262Z,81.23
2023-03-04T04:50:28.043Z,99.77
2023-03-04T04:52:54.785Z,89.53
2023-03-04T04:55:21.495Z,87.17
2023-03-04T04:57:48.188Z,94.30
2023-03-04T05:00:15.263Z,95.90
2023-03-04T05:02:42.009Z,86.00
2023-03-04T05:05:09.152Z,102.03
2023-03-04T05:07:35.852Z,88.47
2023-03-04T05:10:03.203Z,95.50
2023-03-04T05:12:30.029Z,88.57
2023-03-04T05:14:56.770Z,90.30
2023-03-04T05:17:23.546Z,83.67
2023-03-04T05:19:50.263Z,88.80
2023-03-04T05:22:16.942Z,83.13
2023-03-04T05:24:43.683Z,84.17
2023-03-04T05:27:10.522Z,92.57
2023-03-04T05:29:37.341Z,91.90
2023-03-04T05:32:04.189Z,83.40
2023-03-04T05:34:30.958Z,86.40
2023-03-04T05:36:57.660Z,91.90
2023-03-04T05:39:24.526Z,81.87
2023-03-04T05:41:51.318Z,83.87
2023-03-04T05:44:18.057Z,87.70
2023-03-04T05:46:44.803Z,86.10
2023-03-04T05:49:11.566Z,88.70
2023-03-04T05:51:38.379Z,88.77
2023-03-04T05:54:05.059Z,85.60
2023-03-04T05:56:33.501Z,90.50
2023-03-04T05:59:00.396Z,93.83
2023-03-04T06:01:27.317Z,90.17
2023-03-04T06:03:54.117Z,87.10
2023-03-04T06:06:20.871Z,85.07
2023-03-04T06:08:47.604Z,86.00
2023-03-04T06:11:14.372Z,87.67
2023-03-04T06:13:41.154Z,95.10
2023-03-04T06:16:08.192Z,81.47
2023-03-04T06:18:35.081Z,86.30
2023-03-04T06:21:03.301Z,82.30
2023-03-04T06:23:30.685Z,72.60
2023-03-04T06:25:59.641Z,68.20
2023-03-04T06:28:26.545Z,73.47
2023-03-04T06:30:54.424Z,67.97
2023-03-04T06:33:21.487Z,62.57
2023-03-04T06:35:48.476Z,59.93
2023-03-04T06:38:15.439Z,57.23
2023-03-04T06:40:42.196Z,56.77
2023-03-04T06:43:08.978Z,55.77
2023-03-04T06:45:35.729Z,57.83
2023-03-04T06:48:02.621Z,57.30
2023-03-04T06:50:29.324Z,55.23
2023-03-04T06:52:59.128Z,56.67
2023-03-04T06:55:25.863Z,53.80
2023-03-04T06:57:52.647Z,57.17
2023-03-04T07:00:19.737Z,51.27
2023-03-04T07:02:46.486Z,54.23
2023-03-04T07:05:13.274Z,52.43
2023-03-04T07:07:40.008Z,47.57
2023-03-04T07:10:07.193Z,54.67
2023-03-04T07:12:33.958Z,53.27
2023-03-04T07:15:00.712Z,51.83
2023-03-04T07:17:27.595Z,53.27
2023-03-04T07:19:54.313Z,51.67
2023-03-04T07:22:21.161Z,52.40
2023-03-04T07:24:47.953Z,66.60
2023-03-04T07:27:14.734Z,50.23
2023-03-04T07:29:41.497Z,51.63
2023-03-04T07:32:10.165Z,48.07
2023-03-04T07:34:37.056Z,49.90
2023-03-04T07:37:04.213Z,48.07
2023-03-04T07:39:31.102Z,50.20
2023-03-04T07:41:57.831Z,44.03
2023-03-04T07:44:24.633Z,46.77
2023-03-04T07:46:51.324Z,48.63
2023-03-04T07:49:18.080Z,43.43
2023-03-04T07:51:44.796Z,41.50
2023-03-04T07:54:11.906Z,44.33
2023-03-04T07:56:38.741Z,42.67
2023-03-04T07:59:05.827Z,53.33
2023-03-04T08:01:35.601Z,38.47
2023-03-04T08:04:04.223Z,38.63
2023-03-04T08:06:31.472Z,39.57
2023-03-04T08:09:04.199Z,36.30
2023-03-04T08:11:31.469Z,36.57
2023-03-04T08:13:58.674Z,36.70
2023-03-04T08:16:26.582Z,36.33
2023-03-04T08:18:56.504Z,33.80
2023-03-04T08:21:24.582Z,40.03
2023-03-04T08:23:52.104Z,31.97
2023-03-04T08:26:25.932Z,35.97
2023-03-04T08:28:53.403Z,29.23
2023-03-04T08:31:20.787Z,28.40
2023-03-04T08:33:51.281Z,32.53
2023-03-04T08:36:18.019Z,29.43
2023-03-04T08:38:44.784Z,37.17
2023-03-04T08:41:12.610Z,27.47
2023-03-04T08:43:39.546Z,28.40
2023-03-04T08:46:06.540Z,30.37
2023-03-04T08:48:33.994Z,25.77
2023-03-04T08:51:01.002Z,22.83
2023-03-04T08:53:27.943Z,18.77
2023-03-04T08:55:54.712Z,20.03
2023-03-04T08:58:21.552Z,22.50
2023-03-04T09:00:49.598Z,17.93
2023-03-04T09:03:17.181Z,38.47
2023-03-04T09:05:45.738Z,32.87
2023-03-04T09:08:13.425Z,17.60
2023-03-04T09:10:41.063Z,16.77
2023-03-04T09:13:08.209Z,16.30
2023-03-04T09:15:36.043Z,14.30
2023-03-04T09:18:04.299Z,16.63
2023-03-04T09:20:32.306Z,18.10
2023-03-04T09:22:59.107Z,16.23
2023-03-04T09:25:25.865Z,15.60
2023-03-04T09:27:52.724Z,16.03
2023-03-04T09:30:19.799Z,16.00
2023-03-04T09:32:46.861Z,16.87
2023-03-04T09:35:13.702Z,16.63
2023-03-04T09:37:41.699Z,17.17
2023-03-04T09:40:12.045Z,14.30
2023-03-04T09:42:47.239Z,16.87
2023-03-04T09:45:18.849Z,16.00
2023-03-04T09:47:47.931Z,15.67
2023-03-04T09:50:14.861Z,14.77
2023-03-04T09:53:06.277Z,16.77
2023-03-04T09:55:39.379Z,16.70
2023-03-04T09:58:42.176Z,16.63
2023-03-04T10:01:33.831Z,17.47
2023-03-04T10:04:14.045Z,16.07
2023-03-04T10:06:42.566Z,18.73
2023-03-04T10:09:17.753Z,15.33
2023-03-04T10:12:02.330Z,16.00
2023-03-04T10:15:13.653Z,15.23
2023-03-04T10:17:43.138Z,18.83
2023-03-04T10:20:18.597Z,16.13
2023-03-04T10:22:51.053Z,16.77
2023-03-04T10:25:30.104Z,16.87
2023-03-04T10:28:02.998Z,16.87
2023-03-04T10:30:46.970Z,18.93
2023-03-04T10:33:16.460Z,19.87
2023-03-04T10:35:51.060Z,18.63
2023-03-04T10:38:21.558Z,16.47
2023-03-04T10:40:48.509Z,24.67
2023-03-04T10:43:20.570Z,17.30
2023-03-04T10:45:48.960Z,26.03
2023-03-04T10:48:30.769Z,17.73
2023-03-04T10:51:21.545Z,17.30
2023-03-04T10:54:16.698Z,18.53
2023-03-04T10:56:55.824Z,14.63
2023-03-04T10:59:31.923Z,14.70
2023-03-04T11:02:00.214Z,15.47
2023-03-04T11:04:33.492Z,14.37
2023-03-04T11:07:00.226Z,15.23
2023-03-04T11:09:29.644Z,18.27
2023-03-04T11:12:00.605Z,14.80
2023-03-04T11:14:49.154Z,14.33
2023-03-04T11:17:19.098Z,16.33
2023-03-04T11:19:51.393Z,15.60
2023-03-04T11:22:21.904Z,14.43
2023-03-04T11:24:57.380Z,16.17
2023-03-04T11:27:30.963Z,14.00
2023-03-04T11:30:15.510Z,18.23
2023-03-04T11:32:46.936Z,17.23
2023-03-04T11:35:21.400Z,17.03
2023-03-04T11:38:04.241Z,16.80
2023-03-04T11:40:40.586Z,17.00
2023-03-04T11:43:31.116Z,16.57
2023-03-04T11:46:36.945Z,18.03
2023-03-04T11:49:58.076Z,15.40
2023-03-04T11:52:46.518Z,14.93
2023-03-04T11:55:56.241Z,16.90
2023-03-04T11:58:37.739Z,15.87
2023-03-04T12:01:18.431Z,16.43
2023-03-04T12:03:51.103Z,17.90
2023-03-04T12:06:23.354Z,18.03
2023-03-04T12:09:21.088Z,18.17
2023-03-04T12:12:25.444Z,18.97
2023-03-04T12:15:18.537Z,19.20
2023-03-04T12:18:21.528Z,19.73
2023-03-04T12:21:21.839Z,19.07
2023-03-04T12:24:15.921Z,20.50
2023-03-04T12:27:18.344Z,18.13
2023-03-04T12:30:05.693Z,18.13
2023-03-04T12:32:54.668Z,18.17
2023-03-04T12:35:38.414Z,18.10
2023-03-04T12:38:08.116Z,17.17
2023-03-04T12:41:16.425Z,19.10
2023-03-04T12:44:00.325Z,19.30
2023-03-04T12:46:42.013Z,14.77
2023-03-04T12:49:25.298Z,14.27
2023-03-04T12:52:07.984Z,17.90
2023-03-04T12:54:47.959Z,17.20
2023-03-04T12:57:31.869Z,17.43
2023-03-04T13:00:16.967Z,16.67
2023-03-04T13:03:01.760Z,19.53
2023-03-04T13:05:37.657Z,19.53
2023-03-04T13:08:31.750Z,17.90
2023-03-04T13:11:22.732Z,18.33
2023-03-04T13:14:17.319Z,16.17
2023-03-04T13:16:48.368Z,18.70
2023-03-04T13:19:43.175Z,17.63
2023-03-04T13:22:28.596Z,18.83
2023-03-04T13:24:56.549Z,24.60
2023-03-04T13:27:50.130Z,20.43
2023-03-04T13:30:32.132Z,19.90
2023-03-04T13:33:08.362Z,18.33
2023-03-04T13:35:50.304Z,18.90
2023-03-04T13:38:31.218Z,19.53
2023-03-04T13:41:28.927Z,21.63
2023-03-04T13:44:00.547Z,25.53
2023-03-04T13:46:29.501Z,19.53
2023-03-04T13:48:56.143Z,19.93
2023-03-04T13:51:44.923Z,18.93
2023-03-04T13:54:31.225Z,21.37
2023-03-04T13:57:00.967Z,21.73
2023-03-04T13:59:27.672Z,24.83
2023-03-04T14:02:10.704Z,39.47
2023-03-04T14:04:39.961Z,26.07
2023-03-04T14:07:30.579Z,27.27
2023-03-04T14:10:05.200Z,21.37
2023-03-04T14:12:35.387Z,19.73
2023-03-04T14:15:06.930Z,18.00
2023-03-04T14:17:39.206Z,22.07
2023-03-04T14:20:24.773Z,19.87
2023-03-04T14:22:51.722Z,21.20
2023-03-04T14:25:29.738Z,23.37
2023-03-04T14:28:16.728Z,21.40
2023-03-04T14:30:52.224Z,21.27
2023-03-04T14:33:27.140Z,22.00
2023-03-04T14:36:00.059Z,22.43
2023-03-04T14:38:31.263Z,25.17
2023-03-04T14:41:20.359Z,20.20
2023-03-04T14:44:25.464Z,20.03
2023-03-04T14:47:07.590Z,21.60
2023-03-04T14:49:37.101Z,22.80
2023-03-04T14:52:04.339Z,22.27
2023-03-04T14:54:37.347Z,20.50
2023-03-04T14:57:21.113Z,20.53
2023-03-04T14:59:48.010Z,21.43
2023-03-04T15:02:39.203Z,21.37
2023-03-04T15:05:17.653Z,20.53
2023-03-04T15:07:51.601Z,21.43
2023-03-04T15:10:23.170Z,24.83
2023-03-04T15:12:55.367Z,25.00
2023-03-04T15:15:44.839Z,21.53
2023-03-04T15:18:26.899Z,21.80
2023-03-04T15:21:03.021Z,21.80
2023-03-04T15:23:31.996Z,21.27
2023-03-04T15:26:05.684Z,24.03
2023-03-04T15:28:36.419Z,24.70
2023-03-04T15:31:04.757Z,24.10
2023-03-04T15:33:31.565Z,24.93
2023-03-04T15:36:01.762Z,27.97
2023-03-04T15:38:29.434Z,22.13
2023-03-04T15:40:59.468Z,20.47
2023-03-04T15:43:26.616Z,23.93
2023-03-04T15:45:54.010Z,21.43
2023-03-04T15:48:21.080Z,24.83
2023-03-04T15:51:01.005Z,23.90
2023-03-04T15:53:36.872Z,22.97
2023-03-04T15:56:05.253Z,23.97
2023-03-04T15:58:34.987Z,24.77
2023-03-04T16:01:02.317Z,22.87
2023-03-04T16:03:29.098Z,22.97
2023-03-04T16:05:57.200Z,25.40
2023-03-04T16:08:27.271Z,21.40
2023-03-04T16:10:54.728Z,21.27
2023-03-04T16:13:23.988Z,22.90
2023-03-04T16:15:51.219Z,21.83
2023-03-04T16:18:18.218Z,24.97
2023-03-04T16:20:47.742Z,24.80
2023-03-04T16:23:23.845Z,21.37
2023-03-04T16:25:54.988Z,26.17
2023-03-04T16:28:22.649Z,24.63
2023-03-04T16:30:50.100Z,25.60
2023-03-04T16:33:17.190Z,26.03
2023-03-04T16:35:45.415Z,22.37
2023-03-04T16:38:29.871Z,22.07
2023-03-04T16:40:58.449Z,23.23
2023-03-04T16:43:26.011Z,24.47
2023-03-04T16:45:52.768Z,23.50
2023-03-04T16:48:20.391Z,25.27
2023-03-04T16:50:47.264Z,24.27
2023-03-04T16:53:31.885Z,24.77
2023-03-04T16:56:04.469Z,22.13
2023-03-04T16:58:31.522Z,23.87
2023-03-04T17:00:58.373Z,25.40
2023-03-04T17:03:25.157Z,30.27
2023-03-04T17:05:51.851Z,22.17
2023-03-04T17:08:18.592Z,26.90
2023-03-04T17:10:45.464Z,22.93
2023-03-04T17:13:12.257Z,22.37
2023-03-04T17:15:39.037Z,23.03
2023-03-04T17:18:05.803Z,25.47
2023-03-04T17:20:32.620Z,25.13
2023-03-04T17:22:59.385Z,22.97
2023-03-04T17:25:26.100Z,22.20
2023-03-04T17:27:52.823Z,24.77
2023-03-04T17:30:19.780Z,27.53
2023-03-04T17:32:46.514Z,22.30
2023-03-04T17:35:13.285Z,24.57
2023-03-04T17:37:40.628Z,24.20
2023-03-04T17:40:09.003Z,25.93
2023-03-04T17:42:35.989Z,25.27
2023-03-04T17:45:02.940Z,24.43
2023-03-04T17:47:29.650Z,23.73
2023-03-04T17:49:56.369Z,28.60
2023-03-04T17:52:23.074Z,24.93
2023-03-04T17:54:49.936Z,26.03
2023-03-04T17:57:16.826Z,23.57
2023-03-04T17:59:43.573Z,27.73
2023-03-04T18:02:19.336Z,24.13
2023-03-04T18:04:48.332Z,25.40
2023-03-04T18:07:15.040Z,22.87
2023-03-04T18:09:43.123Z,23.63
2023-03-04T18:12:09.880Z,28.27
2023-03-04T18:14:36.627Z,27.47
2023-03-04T18:17:03.356Z,25.57
2023-03-04T18:19:30.154Z,129.50
2023-03-04T18:21:56.982Z,25.23
2023-03-04T18:24:23.741Z,27.10
2023-03-04T18:26:50.638Z,24.03
2023-03-04T18:29:17.375Z,24.77
2023-03-04T18:31:44.146Z,26.73
2023-03-04T18:34:11.174Z,29.53
2023-03-04T18:36:37.986Z,26.70
2023-03-04T18:39:07.273Z,28.70
2023-03-04T18:41:34.356Z,29.77
2023-03-04T18:44:01.147Z,23.40
2023-03-04T18:46:34.543Z,24.07
2023-03-04T18:49:04.099Z,24.47
2023-03-04T18:51:31.088Z,28.93
2023-03-04T18:53:58.422Z,27.43
2023-03-04T18:56:47.568Z,26.70
2023-03-04T18:59:36.803Z,32.37
2023-03-04T19:02:08.149Z,26.63
2023-03-04T19:04:34.913Z,33.83
2023-03-04T19:07:01.680Z,38.77
2023-03-04T19:09:28.518Z,46.03
2023-03-04T19:11:55.318Z,26.73
2023-03-04T19:14:22.131Z,32.63
2023-03-04T19:16:48.822Z,32.33
2023-03-04T19:19:15.658Z,31.73
2023-03-04T19:21:42.489Z,28.93
2023-03-04T19:24:09.246Z,29.63
2023-03-04T19:26:36.188Z,27.77
2023-03-04T19:29:03.222Z,26.50
2023-03-04T19:31:29.980Z,32.53
2023-03-04T19:33:56.918Z,27.37
2023-03-04T19:36:25.370Z,30.60
2023-03-04T19:38:52.261Z,28.43
2023-03-04T19:41:18.994Z,26.23
2023-03-04T19:43:46.050Z,28.53
2023-03-04T19:46:13.803Z,31.90
2023-03-04T19:48:41.184Z,31.43
2023-03-04T19:51:34.246Z,40.07
2023-03-04T19:54:01.829Z,26.17
2023-03-04T19:56:29.382Z,31.27
2023-03-04T19:58:58.449Z,30.90
2023-03-04T20:01:30.584Z,26.13
2023-03-04T20:04:03.356Z,28.50
2023-03-04T20:06:30.942Z,25.47
2023-03-04T20:08:59.748Z,30.13
2023-03-04T20:11:27.938Z,28.10
2023-03-04T20:13:55.091Z,33.17
2023-03-04T20:16:21.883Z,31.00
2023-03-04T20:18:48.698Z,43.47
2023-03-04T20:21:15.534Z,26.57
2023-03-04T20:23:42.298Z,74.47
2023-03-04T20:26:09.349Z,61.53
2023-03-04T20:28:36.231Z,43.73
2023-03-04T20:31:10.229Z,39.53
2023-03-04T20:33:37.054Z,35.10
2023-03-04T20:36:04.070Z,23.83
2023-03-04T20:38:30.817Z,28.67
2023-03-04T20:40:58.015Z,27.73
2023-03-04T20:43:26.842Z,29.23
2023-03-04T20:45:53.685Z,37.93
2023-03-04T20:48:20.468Z,27.93
2023-03-04T20:50:47.215Z,27.73
2023-03-04T20:53:13.968Z,42.30
2023-03-04T20:55:40.684Z,29.40
2023-03-04T20:58:07.635Z,25.83
2023-03-04T21:00:38.264Z,25.13
2023-03-04T21:03:05.013Z,27.17
2023-03-04T21:05:31.749Z,22.90
2023-03-04T21:07:59.174Z,28.63
2023-03-04T21:10:25.898Z,29.10
2023-03-04T21:12:52.636Z,30.33
2023-03-04T21:15:19.350Z,26.93
2023-03-04T21:17:46.160Z,36.30
2023-03-04T21:20:15.280Z,29.90
2023-03-04T21:22:42.086Z,26.77
2023-03-04T21:25:09.126Z,28.60
2023-03-04T21:27:38.773Z,28.33
2023-03-04T21:30:06.120Z,27.67
2023-03-04T21:32:32.828Z,24.20
2023-03-04T21:34:59.622Z,26.00
2023-03-04T21:37:26.715Z,24.40
2023-03-04T21:39:54.975Z,26.20
2023-03-04T21:42:21.989Z,27.47
2023-03-04T21:44:50.458Z,30.43
2023-03-04T21:47:19.148Z,26.20
2023-03-04T21:49:48.679Z,27.80
2023-03-04T21:52:15.884Z,26.43
2023-03-04T21:54:42.766Z,31.17
2023-03-04T21:57:09.612Z,25.93
2023-03-04T21:59:36.395Z,26.90
2023-03-04T22:02:03.232Z,24.80
2023-03-04T22:04:30.211Z,24.97
2023-03-04T22:06:56.987Z,28.60
2023-03-04T22:09:23.995Z,25.97
2023-03-04T22:11:50.827Z,26.27
2023-03-04T22:14:17.585Z,26.73
2023-03-04T22:16:59.940Z,28.40
2023-03-04T22:19:31.508Z,26.33
2023-03-04T22:21:59.253Z,27.23
2023-03-04T22:24:26.347Z,35.07
2023-03-04T22:26:53.529Z,29.37
2023-03-04T22:29:20.272Z,29.57
2023-03-04T22:31:47.181Z,29.17
2023-03-04T22:34:15.704Z,30.03
2023-03-04T22:36:45.071Z,26.67
2023-03-04T22:39:14.627Z,27.60
2023-03-04T22:41:42.166Z,26.83
2023-03-04T22:44:08.953Z,34.40
2023-03-04T22:46:38.467Z,28.00
2023-03-04T22:49:11.081Z,29.07
2023-03-04T22:51:41.372Z,29.60
2023-03-04T22:54:08.226Z,31.13
2023-03-04T22:56:36.442Z,29.53
2023-03-04T22:59:03.214Z,29.77
2023-03-04T23:01:30.012Z,27.13
2023-03-04T23:03:56.746Z,30.57
2023-03-04T23:06:25.549Z,32.43
2023-03-04T23:08:52.602Z,32.10
2023-03-04T23:11:22.616Z,37.53
2023-03-04T23:13:50.402Z,33.50
2023-03-04T23:16:18.381Z,33.50
2023-03-04T23:18:49.037Z,30.83
2023-03-04T23:21:24.471Z,26.07
2023-03-04T23:23:52.727Z,33.43
2023-03-04T23:26:38.851Z,27.33
2023-03-04T23:29:08.363Z,32.60
2023-03-04T23:31:37.019Z,31.80
2023-03-04T23:34:05.091Z,30.27
2023-03-04T23:36:35.377Z,30.70
2023-03-04T23:39:03.537Z,32.10
2023-03-04T23:41:32.854Z,37.23
2023-03-04T23:44:00.565Z,29.57
2023-03-04T23:46:28.650Z,28.20
2023-03-04T23:48:56.638Z,33.53
2023-03-04T23:51:27.848Z,34.27
2023-03-04T23:53:54.994Z,36.90
2023-03-04T23:56:24.823Z,33.57
2023-03-04T23:58:52.016Z,29.87
